createdAt,value
2022-10-17T00:03:43.191Z,4.47
2022-10-17T00:08:49.742Z,3.65
2022-10-17T00:13:56.815Z,3.75
2022-10-17T00:19:01.898Z,3.55
2022-10-17T00:24:07.410Z,3.50
2022-10-17T00:29:10.206Z,3.88
2022-10-17T00:34:16.714Z,3.55
2022-10-17T00:39:20.965Z,3.70
2022-10-17T00:44:30.640Z,4.13
2022-10-17T00:49:36.209Z,2.50
2022-10-17T00:54:44.546Z,3.25
2022-10-17T00:59:53.234Z,2.65
2022-10-17T01:04:56.766Z,3.05
2022-10-17T01:10:03.329Z,3.28
2022-10-17T01:15:36.263Z,3.20
2022-10-17T01:21:10.266Z,3.00
2022-10-17T01:26:49.290Z,3.05
2022-10-17T01:32:18.489Z,3.05
2022-10-17T01:37:33.457Z,3.00
2022-10-17T01:42:43.848Z,2.97
2022-10-17T01:47:53.172Z,3.25
2022-10-17T01:52:59.562Z,3.53
2022-10-17T01:58:20.027Z,3.25
2022-10-17T02:03:26.057Z,3.40
2022-10-17T02:08:30.031Z,3.50
2022-10-17T02:14:01.215Z,3.40
2022-10-17T02:19:33.269Z,3.35
2022-10-17T02:24:38.150Z,3.08
2022-10-17T02:29:57.348Z,3.10
2022-10-17T02:35:06.414Z,3.25
2022-10-17T02:40:10.863Z,3.40
2022-10-17T02:45:18.894Z,3.25
2022-10-17T02:50:24.374Z,3.63
2022-10-17T02:55:36.073Z,4.03
2022-10-17T03:00:43.099Z,3.72
2022-10-17T03:05:52.184Z,3.95
2022-10-17T03:10:57.072Z,4.05
2022-10-17T03:16:00.564Z,3.88
2022-10-17T03:21:05.104Z,3.47
2022-10-17T03:26:10.171Z,4.50
2022-10-17T03:31:17.248Z,3.90
2022-10-17T03:36:24.679Z,4.57
2022-10-17T03:41:28.757Z,4.43
2022-10-17T03:46:30.544Z,4.07
2022-10-17T03:51:36.867Z,4.03
2022-10-17T03:56:44.670Z,3.90
2022-10-17T04:01:49.884Z,5.00
2022-10-17T04:06:52.103Z,4.32
2022-10-17T04:11:54.406Z,4.40
2022-10-17T04:16:58.502Z,5.15
2022-10-17T04:22:00.852Z,4.85
2022-10-17T04:27:08.204Z,4.95
2022-10-17T04:32:13.444Z,4.88
2022-10-17T04:37:24.198Z,5.78
2022-10-17T04:42:29.657Z,6.03
2022-10-17T04:47:32.184Z,6.32
2022-10-17T04:52:39.648Z,6.13
2022-10-17T04:57:44.409Z,6.53
2022-10-17T05:02:54.618Z,7.47
2022-10-17T05:08:01.359Z,8.02
2022-10-17T05:13:09.015Z,9.60
2022-10-17T05:18:13.836Z,9.15
2022-10-17T05:23:19.003Z,10.38
2022-10-17T05:28:24.939Z,10.25
2022-10-17T05:33:28.768Z,13.50
2022-10-17T05:38:34.577Z,13.63
2022-10-17T05:43:39.815Z,14.98
2022-10-17T05:48:47.520Z,15.57
2022-10-17T05:53:49.374Z,17.20
2022-10-17T05:59:01.020Z,19.85
2022-10-17T06:04:18.340Z,20.90
2022-10-17T06:09:20.372Z,17.40
2022-10-17T06:14:26.929Z,17.85
2022-10-17T06:19:36.774Z,19.40
2022-10-17T06:24:40.963Z,19.15
2022-10-17T06:29:48.756Z,19.70
2022-10-17T06:34:53.752Z,20.08
2022-10-17T06:39:59.150Z,18.67
2022-10-17T06:45:00.898Z,17.40
2022-10-17T06:50:16.618Z,14.68
2022-10-17T06:55:27.350Z,13.07
2022-10-17T07:00:44.964Z,11.65
2022-10-17T07:05:53.014Z,10.70
2022-10-17T07:11:00.711Z,9.73
2022-10-17T07:16:08.082Z,9.18
2022-10-17T07:21:13.538Z,9.60
2022-10-17T07:26:16.938Z,10.05
2022-10-17T07:31:20.488Z,9.48
2022-10-17T07:36:24.414Z,9.82
2022-10-17T07:41:28.836Z,10.02
2022-10-17T07:46:30.670Z,9.55
2022-10-17T07:51:35.758Z,9.13
2022-10-17T07:56:41.710Z,9.60
2022-10-17T08:01:44.410Z,9.00
2022-10-17T08:07:05.626Z,9.43
2022-10-17T08:12:34.450Z,9.07
2022-10-17T08:17:37.178Z,9.45
2022-10-17T08:22:41.169Z,8.85
2022-10-17T08:27:47.309Z,8.18
2022-10-17T08:32:51.261Z,8.60
2022-10-17T08:37:53.206Z,7.65
2022-10-17T08:43:26.876Z,7.55
2022-10-17T08:48:35.346Z,7.30
2022-10-17T08:54:03.670Z,7.45
2022-10-17T08:59:12.975Z,8.02
2022-10-17T09:04:20.036Z,7.07
2022-10-17T09:09:31.958Z,7.68
2022-10-17T09:14:49.742Z,7.30
2022-10-17T09:20:02.100Z,7.32
2022-10-17T09:25:07.081Z,7.05
2022-10-17T09:30:46.820Z,7.03
2022-10-17T09:35:51.190Z,7.38
2022-10-17T09:41:01.569Z,7.00
2022-10-17T09:46:28.741Z,6.68
2022-10-17T09:51:33.801Z,7.03
2022-10-17T09:56:58.035Z,7.22
2022-10-17T10:02:20.635Z,6.65
2022-10-17T10:07:29.735Z,7.20
2022-10-17T10:12:34.251Z,7.63
2022-10-17T10:17:44.193Z,6.80
2022-10-17T10:23:13.458Z,7.10
2022-10-17T10:28:17.373Z,7.07
2022-10-17T10:33:21.082Z,8.00
2022-10-17T10:38:26.582Z,7.78
2022-10-17T10:43:39.797Z,7.88
2022-10-17T10:49:00.200Z,8.23
2022-10-17T10:54:05.141Z,7.00
2022-10-17T10:59:19.182Z,7.43
2022-10-17T11:04:39.705Z,7.10
2022-10-17T11:09:58.672Z,8.15
2022-10-17T11:15:20.775Z,8.85
2022-10-17T11:20:58.179Z,9.25
2022-10-17T11:26:07.164Z,8.35
2022-10-17T11:31:15.945Z,9.25
2022-10-17T11:36:24.516Z,11.05
2022-10-17T11:41:48.449Z,11.68
2022-10-17T11:47:09.123Z,13.85
2022-10-17T11:52:55.378Z,13.55
2022-10-17T11:58:09.588Z,14.65
2022-10-17T12:03:41.333Z,15.98
2022-10-17T12:09:01.132Z,16.83
2022-10-17T12:14:05.780Z,17.80
2022-10-17T12:19:21.603Z,21.08
2022-10-17T12:24:54.944Z,18.33
2022-10-17T12:30:16.736Z,18.25
2022-10-17T12:35:24.945Z,18.25
2022-10-17T12:40:38.817Z,18.27
2022-10-17T12:46:00.683Z,18.38
2022-10-17T12:51:44.203Z,17.52
2022-10-17T12:56:36.436Z,19.75
2022-10-17T13:01:46.512Z,19.05
2022-10-17T13:06:54.521Z,18.63
2022-10-17T13:12:02.467Z,21.55
2022-10-17T13:17:06.792Z,21.35
2022-10-17T13:22:33.022Z,21.33
2022-10-17T13:27:43.743Z,20.35
2022-10-17T13:32:47.939Z,20.50
2022-10-17T13:37:54.069Z,20.38
2022-10-17T13:43:02.057Z,18.80
2022-10-17T13:48:19.051Z,18.40
2022-10-17T13:53:27.475Z,18.60
2022-10-17T13:58:41.860Z,16.42
2022-10-17T14:03:48.886Z,15.13
2022-10-17T14:09:00.665Z,14.73
2022-10-17T14:14:19.249Z,14.98
2022-10-17T14:19:36.116Z,13.43
2022-10-17T14:24:45.051Z,12.32
2022-10-17T14:29:51.962Z,10.77
2022-10-17T14:35:01.544Z,10.57
2022-10-17T14:40:20.157Z,10.23
2022-10-17T14:45:31.815Z,9.77
2022-10-17T14:50:36.383Z,10.13
2022-10-17T14:55:58.009Z,10.77
2022-10-17T15:01:02.144Z,11.60
2022-10-17T15:06:33.991Z,11.05
2022-10-17T15:11:36.235Z,12.15
2022-10-17T15:16:39.478Z,11.77
2022-10-17T15:21:47.225Z,14.25
2022-10-17T15:26:51.623Z,13.10
2022-10-17T15:31:55.895Z,16.63
2022-10-17T15:36:59.893Z,10.77
2022-10-17T15:42:01.682Z,9.93
2022-10-17T15:47:03.702Z,10.35
2022-10-17T15:52:08.463Z,11.80
2022-10-17T15:57:17.739Z,9.77
2022-10-17T16:04:35.687Z,8.80
2022-10-17T16:09:37.518Z,10.67
2022-10-17T16:14:41.269Z,6.55
2022-10-17T16:19:45.671Z,7.17
2022-10-17T16:24:48.513Z,8.85
2022-10-17T16:29:53.600Z,11.70
2022-10-17T16:34:55.331Z,10.40
2022-10-17T16:39:57.135Z,9.07
2022-10-17T16:44:58.805Z,7.25
2022-10-17T16:50:02.861Z,7.57
2022-10-17T16:55:05.074Z,8.40
2022-10-17T17:00:11.967Z,8.98
2022-10-17T17:05:13.743Z,9.30
2022-10-17T17:10:15.667Z,7.70
2022-10-17T17:15:18.447Z,6.70
2022-10-17T17:20:20.420Z,6.10
2022-10-17T17:25:24.899Z,7.07
2022-10-17T17:30:30.197Z,6.57
2022-10-17T17:35:32.012Z,6.50
2022-10-17T17:40:50.472Z,23.33
2022-10-17T17:45:53.005Z,7.00
2022-10-17T17:50:54.736Z,6.65
2022-10-17T17:56:25.082Z,5.57
2022-10-17T18:01:32.461Z,6.95
2022-10-17T18:06:40.316Z,12.18
2022-10-17T18:11:42.374Z,11.07
2022-10-17T18:16:46.549Z,11.85
2022-10-17T18:21:48.888Z,13.90
2022-10-17T18:26:53.933Z,8.00
2022-10-17T18:31:55.891Z,12.15
2022-10-17T18:37:02.630Z,7.88
2022-10-17T18:42:05.030Z,10.20
2022-10-17T18:47:09.190Z,9.70
2022-10-17T18:52:18.041Z,7.90
2022-10-17T18:57:25.271Z,9.63
2022-10-17T19:02:28.185Z,10.05
2022-10-17T19:07:32.631Z,7.63
2022-10-17T19:12:34.567Z,8.95
2022-10-17T19:17:37.117Z,11.18
2022-10-17T19:22:38.809Z,8.68
2022-10-17T19:27:40.748Z,10.13
2022-10-17T19:32:44.813Z,9.48
2022-10-17T19:37:46.649Z,9.38
2022-10-17T19:42:48.393Z,8.63
2022-10-17T19:47:50.217Z,9.85
2022-10-17T19:52:52.184Z,10.90
2022-10-17T19:57:56.638Z,11.80
2022-10-17T20:02:59.362Z,12.10
2022-10-17T20:08:01.195Z,13.52
2022-10-17T20:13:06.094Z,14.73
2022-10-17T20:18:09.015Z,16.02
2022-10-17T20:23:11.424Z,16.83
2022-10-17T20:28:13.437Z,17.75
2022-10-17T20:33:15.793Z,18.33
2022-10-17T20:38:20.096Z,19.38
2022-10-17T20:43:24.852Z,21.58
2022-10-17T20:48:26.891Z,21.58
2022-10-17T20:53:37.119Z,23.95
2022-10-17T20:58:42.678Z,23.20
2022-10-17T21:03:46.508Z,27.25
2022-10-17T21:08:51.296Z,22.55
2022-10-17T21:14:01.988Z,23.00
2022-10-17T21:19:12.489Z,25.55
2022-10-17T21:24:17.390Z,24.83
2022-10-17T21:29:22.142Z,25.13
2022-10-17T21:34:28.613Z,26.95
2022-10-17T21:39:32.728Z,27.20
2022-10-17T21:44:36.286Z,28.75
2022-10-17T21:49:40.385Z,29.13
2022-10-17T21:54:42.081Z,27.83
2022-10-17T21:59:46.550Z,29.45
2022-10-17T22:04:51.308Z,28.83
2022-10-17T22:09:52.956Z,31.35
2022-10-17T22:14:57.062Z,28.20
2022-10-17T22:20:01.917Z,32.83
2022-10-17T22:25:08.638Z,29.02
2022-10-17T22:30:12.941Z,32.53
2022-10-17T22:35:16.854Z,32.30
2022-10-17T22:40:19.589Z,34.70
2022-10-17T22:45:24.402Z,30.80
2022-10-17T22:50:28.789Z,37.35
2022-10-17T22:55:33.000Z,35.47
2022-10-17T23:00:34.695Z,38.05
2022-10-17T23:05:37.737Z,37.42
2022-10-17T23:10:41.746Z,41.08
2022-10-17T23:15:45.974Z,42.65
2022-10-17T23:20:54.928Z,40.53
2022-10-17T23:26:10.274Z,42.38
2022-10-17T23:31:17.747Z,41.42
2022-10-17T23:36:22.673Z,43.03
2022-10-17T23:41:29.062Z,42.60
2022-10-17T23:46:32.980Z,41.20
2022-10-17T23:51:38.052Z,44.83
2022-10-17T23:56:40.711Z,38.53
